createdAt,value
2023-03-17T00:00:38.372Z,5.20
2023-03-17T00:03:30.515Z,5.10
2023-03-17T00:06:20.989Z,5.10
2023-03-17T00:09:17.005Z,5.10
2023-03-17T00:12:05.754Z,5.20
2023-03-17T00:14:53.508Z,5.30
2023-03-17T00:17:41.442Z,5.30
2023-03-17T00:20:33.154Z,5.40
2023-03-17T00:23:24.355Z,5.30
2023-03-17T00:26:12.689Z,5.30
2023-03-17T00:29:00.091Z,5.30
2023-03-17T00:31:48.038Z,5.20
2023-03-17T00:34:35.299Z,5.20
2023-03-17T00:37:22.919Z,5.30
2023-03-17T00:40:18.975Z,5.20
2023-03-17T00:43:08.249Z,5.10
2023-03-17T00:45:55.635Z,5.20
2023-03-17T00:48:44.200Z,5.20
2023-03-17T00:51:31.419Z,5.30
2023-03-17T00:54:21.167Z,5.30
2023-03-17T00:57:10.626Z,5.20
2023-03-17T00:59:57.597Z,5.20
2023-03-17T01:02:45.574Z,5.20
2023-03-17T01:05:32.930Z,5.10
2023-03-17T01:08:20.752Z,5.00
2023-03-17T01:11:09.636Z,5.00
2023-03-17T01:13:57.100Z,5.00
2023-03-17T01:16:44.603Z,5.10
2023-03-17T01:19:32.566Z,5.10
2023-03-17T01:22:20.368Z,5.00
2023-03-17T01:25:07.705Z,5.00
2023-03-17T01:28:00.691Z,5.00
2023-03-17T01:30:49.195Z,5.00
2023-03-17T01:33:36.533Z,4.90
2023-03-17T01:36:24.014Z,5.00
2023-03-17T01:39:12.735Z,5.10
2023-03-17T01:42:02.470Z,5.10
2023-03-17T01:45:05.537Z,5.10
2023-03-17T01:47:52.888Z,5.00
2023-03-17T01:50:41.000Z,5.00
2023-03-17T01:53:29.044Z,4.90
2023-03-17T01:56:17.987Z,4.90
2023-03-17T01:59:08.376Z,4.90
2023-03-17T02:01:58.663Z,5.10
2023-03-17T02:04:46.280Z,5.10
2023-03-17T02:07:33.972Z,5.20
2023-03-17T02:10:24.058Z,5.20
2023-03-17T02:13:13.566Z,5.10
2023-03-17T02:16:00.663Z,5.10
2023-03-17T02:18:47.691Z,5.10
2023-03-17T02:21:46.437Z,5.00
2023-03-17T02:24:48.210Z,5.00
2023-03-17T02:27:39.369Z,4.90
2023-03-17T02:30:26.795Z,4.80
2023-03-17T02:33:14.124Z,4.70
2023-03-17T02:36:01.373Z,4.70
2023-03-17T02:38:48.506Z,4.60
2023-03-17T02:41:37.178Z,4.50
2023-03-17T02:44:24.163Z,4.70
2023-03-17T02:47:11.672Z,4.80
2023-03-17T02:49:58.928Z,4.80
2023-03-17T02:52:45.955Z,5.00
2023-03-17T02:55:33.363Z,5.00
2023-03-17T02:58:20.353Z,5.00
2023-03-17T03:01:09.023Z,4.90
2023-03-17T03:03:56.733Z,4.80
2023-03-17T03:06:44.661Z,4.80
2023-03-17T03:09:31.603Z,4.90
2023-03-17T03:12:18.890Z,4.90
2023-03-17T03:15:06.933Z,4.90
2023-03-17T03:17:54.156Z,4.90
2023-03-17T03:20:44.440Z,4.80
2023-03-17T03:23:32.156Z,4.90
2023-03-17T03:26:19.375Z,4.90
2023-03-17T03:29:06.738Z,4.90
2023-03-17T03:31:54.200Z,4.80
2023-03-17T03:34:43.266Z,4.70
2023-03-17T03:37:30.579Z,4.60
2023-03-17T03:40:17.669Z,4.50
2023-03-17T03:43:19.808Z,4.40
2023-03-17T03:45:55.209Z,4.50
2023-03-17T03:48:42.468Z,4.60
2023-03-17T03:51:29.875Z,4.60
2023-03-17T03:54:17.439Z,4.60
2023-03-17T03:57:05.043Z,4.60
2023-03-17T03:59:53.582Z,4.60
2023-03-17T04:02:41.602Z,4.60
2023-03-17T04:05:28.664Z,4.60
2023-03-17T04:08:16.530Z,4.70
2023-03-17T04:11:04.045Z,4.60
2023-03-17T04:13:51.445Z,4.40
2023-03-17T04:16:38.680Z,4.20
2023-03-17T04:19:25.834Z,4.20
2023-03-17T04:22:13.406Z,4.20
2023-03-17T04:25:00.950Z,4.30
2023-03-17T04:27:49.821Z,4.20
2023-03-17T04:30:36.935Z,4.10
2023-03-17T04:33:24.199Z,4.20
2023-03-17T04:36:20.258Z,4.20
2023-03-17T04:39:09.660Z,4.30
2023-03-17T04:41:56.273Z,4.30
2023-03-17T04:44:43.624Z,4.20
2023-03-17T04:47:31.065Z,4.20
2023-03-17T04:50:18.245Z,3.90
2023-03-17T04:53:05.333Z,3.90
2023-03-17T04:55:52.358Z,3.90
2023-03-17T04:58:39.536Z,4.10
2023-03-17T05:01:27.021Z,4.10
2023-03-17T05:04:25.281Z,4.00
2023-03-17T05:07:02.848Z,3.90
2023-03-17T05:09:49.841Z,3.80
2023-03-17T05:12:37.458Z,4.00
2023-03-17T05:15:24.643Z,4.10
2023-03-17T05:18:11.908Z,4.00
2023-03-17T05:20:59.311Z,3.80
2023-03-17T05:23:46.427Z,3.70
2023-03-17T05:26:34.169Z,3.70
2023-03-17T05:29:22.328Z,3.60
2023-03-17T05:32:09.687Z,3.50
2023-03-17T05:34:57.037Z,3.50
2023-03-17T05:37:44.177Z,3.40
2023-03-17T05:40:31.722Z,3.20
2023-03-17T05:43:19.700Z,3.30
2023-03-17T05:46:07.191Z,3.20
2023-03-17T05:48:54.285Z,3.20
2023-03-17T05:51:42.075Z,3.30
2023-03-17T05:54:29.387Z,3.30
2023-03-17T05:57:16.976Z,3.20
2023-03-17T06:00:05.373Z,3.10
2023-03-17T06:02:52.857Z,3.10
2023-03-17T06:05:40.635Z,3.10
2023-03-17T06:08:27.795Z,3.10
2023-03-17T06:11:15.486Z,3.10
2023-03-17T06:14:02.857Z,3.10
2023-03-17T06:16:50.190Z,3.10
2023-03-17T06:19:37.660Z,3.10
2023-03-17T06:22:25.052Z,3.10
2023-03-17T06:25:13.752Z,3.20
2023-03-17T06:28:02.200Z,3.40
2023-03-17T06:30:49.333Z,3.50
2023-03-17T06:33:36.992Z,3.60
2023-03-17T06:36:24.796Z,3.70
2023-03-17T06:39:12.275Z,3.80
2023-03-17T06:41:59.364Z,3.90
2023-03-17T06:44:47.024Z,4.10
2023-03-17T06:47:35.361Z,4.30
2023-03-17T06:50:22.340Z,4.50
2023-03-17T06:53:09.974Z,4.60
2023-03-17T06:55:57.767Z,4.90
2023-03-17T06:58:45.538Z,5.10
2023-03-17T07:01:32.789Z,5.30
2023-03-17T07:04:20.692Z,5.50
2023-03-17T07:07:08.072Z,5.70
2023-03-17T07:09:55.279Z,5.90
2023-03-17T07:12:42.744Z,6.10
2023-03-17T07:15:32.336Z,6.40
2023-03-17T07:18:19.705Z,6.60
2023-03-17T07:21:07.191Z,6.80
2023-03-17T07:23:54.713Z,6.90
2023-03-17T07:26:42.308Z,7.20
2023-03-17T07:29:29.538Z,7.30
2023-03-17T07:32:16.967Z,7.50
2023-03-17T07:35:04.971Z,7.60
2023-03-17T07:37:55.492Z,7.80
2023-03-17T07:40:42.656Z,7.80
2023-03-17T07:43:31.572Z,7.90
2023-03-17T07:46:18.441Z,8.00
2023-03-17T07:49:06.122Z,8.10
2023-03-17T07:51:53.324Z,8.30
2023-03-17T07:54:42.955Z,8.40
2023-03-17T07:57:29.828Z,8.50
2023-03-17T08:00:17.773Z,8.70
2023-03-17T08:03:10.294Z,8.80
2023-03-17T08:05:59.348Z,8.90
2023-03-17T08:08:46.521Z,9.10
2023-03-17T08:11:33.877Z,9.20
2023-03-17T08:14:21.187Z,9.30
2023-03-17T08:17:08.696Z,9.30
2023-03-17T08:19:56.326Z,9.50
2023-03-17T08:22:44.086Z,9.70
2023-03-17T08:25:31.948Z,9.70
2023-03-17T08:28:19.144Z,9.80
2023-03-17T08:31:15.754Z,9.80
2023-03-17T08:34:04.323Z,9.90
2023-03-17T08:36:51.773Z,10.10
2023-03-17T08:39:39.466Z,10.10
2023-03-17T08:42:26.518Z,10.20
2023-03-17T08:45:15.410Z,10.30
2023-03-17T08:48:03.442Z,10.40
2023-03-17T08:50:51.206Z,10.50
2023-03-17T08:53:38.897Z,10.60
2023-03-17T08:56:27.013Z,10.90
2023-03-17T08:59:16.497Z,11.10
2023-03-17T09:02:03.027Z,11.30
2023-03-17T09:04:50.289Z,11.30
2023-03-17T09:07:38.011Z,11.60
2023-03-17T09:10:25.542Z,11.70
2023-03-17T09:13:12.792Z,11.80
2023-03-17T09:15:59.952Z,12.10
2023-03-17T09:18:48.779Z,12.40
2023-03-17T09:21:36.446Z,12.50
2023-03-17T09:24:23.818Z,12.50
2023-03-17T09:27:11.210Z,12.60
2023-03-17T09:29:58.673Z,12.80
2023-03-17T09:32:46.705Z,13.00
2023-03-17T09:35:33.961Z,13.30
2023-03-17T09:38:22.971Z,13.40
2023-03-17T09:41:23.192Z,13.40
2023-03-17T09:44:17.930Z,13.60
2023-03-17T09:47:25.304Z,13.80
2023-03-17T09:50:15.846Z,13.90
2023-03-17T09:53:05.073Z,14.10
2023-03-17T09:55:55.588Z,14.30
2023-03-17T09:58:51.952Z,14.40
2023-03-17T10:01:42.213Z,14.00
2023-03-17T10:04:29.281Z,14.10
2023-03-17T10:07:19.796Z,14.00
2023-03-17T10:10:18.714Z,13.90
2023-03-17T10:13:29.922Z,14.20
2023-03-17T10:16:26.285Z,14.50
2023-03-17T10:19:28.155Z,14.90
2023-03-17T10:22:27.274Z,14.90
2023-03-17T10:25:23.089Z,14.80
2023-03-17T10:28:30.618Z,14.90
2023-03-17T10:31:21.340Z,15.00
2023-03-17T10:34:17.914Z,15.20
2023-03-17T10:37:11.024Z,15.00
2023-03-17T10:39:59.858Z,14.90
2023-03-17T10:43:03.667Z,14.90
2023-03-17T10:46:05.420Z,15.10
2023-03-17T10:49:05.463Z,15.40
2023-03-17T10:51:53.879Z,15.50
2023-03-17T10:54:41.823Z,15.80
2023-03-17T10:57:30.083Z,15.90
2023-03-17T11:00:20.199Z,15.90
2023-03-17T11:03:13.405Z,15.70
2023-03-17T11:06:15.855Z,15.70
2023-03-17T11:09:09.646Z,15.80
2023-03-17T11:12:06.161Z,16.00
2023-03-17T11:15:03.690Z,16.10
2023-03-17T11:18:05.514Z,16.30
2023-03-17T11:21:01.315Z,16.40
2023-03-17T11:23:53.784Z,16.10
2023-03-17T11:26:56.316Z,16.40
2023-03-17T11:29:49.604Z,16.50
2023-03-17T11:33:00.742Z,16.70
2023-03-17T11:35:53.497Z,16.70
2023-03-17T11:38:43.571Z,16.80
2023-03-17T11:41:38.914Z,16.80
2023-03-17T11:44:46.432Z,16.60
2023-03-17T11:47:59.340Z,16.90
2023-03-17T11:50:55.290Z,17.00
2023-03-17T11:53:48.447Z,17.20
2023-03-17T11:56:44.839Z,17.40
2023-03-17T11:59:43.897Z,17.40
2023-03-17T12:02:42.977Z,17.20
2023-03-17T12:05:31.595Z,17.20
2023-03-17T12:08:24.827Z,17.40
2023-03-17T12:11:15.259Z,17.60
2023-03-17T12:14:14.221Z,17.70
2023-03-17T12:17:16.908Z,17.40
2023-03-17T12:20:10.205Z,17.00
2023-03-17T12:23:00.903Z,16.90
2023-03-17T12:25:54.364Z,17.00
2023-03-17T12:28:54.225Z,17.30
2023-03-17T12:31:48.815Z,17.40
2023-03-17T12:34:47.714Z,17.30
2023-03-17T12:37:35.010Z,17.60
2023-03-17T12:40:26.207Z,17.60
2023-03-17T12:43:38.894Z,17.50
2023-03-17T12:46:31.731Z,17.60
2023-03-17T12:49:27.582Z,17.70
2023-03-17T12:52:37.486Z,17.70
2023-03-17T12:55:27.317Z,17.90
2023-03-17T12:58:29.498Z,18.00
2023-03-17T13:01:23.007Z,17.90
2023-03-17T13:04:32.896Z,17.90
2023-03-17T13:07:35.082Z,17.80
2023-03-17T13:10:48.136Z,17.90
2023-03-17T13:13:44.415Z,18.20
2023-03-17T13:16:34.250Z,18.20
2023-03-17T13:19:27.947Z,18.30
2023-03-17T13:22:23.471Z,18.40
2023-03-17T13:25:29.266Z,18.30
2023-03-17T13:28:20.685Z,18.40
2023-03-17T13:31:23.240Z,18.30
2023-03-17T13:34:18.324Z,18.00
2023-03-17T13:37:14.622Z,18.10
2023-03-17T13:40:22.910Z,18.00
2023-03-17T13:43:15.571Z,18.00
2023-03-17T13:46:17.497Z,18.10
2023-03-17T13:49:22.097Z,18.20
2023-03-17T13:52:15.409Z,18.30
2023-03-17T13:55:07.335Z,18.10
2023-03-17T13:58:11.601Z,18.00
2023-03-17T14:01:02.605Z,18.00
2023-03-17T14:03:55.513Z,18.00
2023-03-17T14:06:43.037Z,18.00
2023-03-17T14:09:38.753Z,18.00
2023-03-17T14:12:37.944Z,18.20
2023-03-17T14:15:37.605Z,18.20
2023-03-17T14:18:37.626Z,18.40
2023-03-17T14:21:28.056Z,18.70
2023-03-17T14:24:26.340Z,18.70
2023-03-17T14:27:14.940Z,18.90
2023-03-17T14:30:11.927Z,19.10
2023-03-17T14:33:07.104Z,19.20
2023-03-17T14:35:56.920Z,19.10
2023-03-17T14:38:50.333Z,18.90
2023-03-17T14:41:37.848Z,19.00
2023-03-17T14:44:25.195Z,18.90
2023-03-17T14:47:24.759Z,19.00
2023-03-17T14:50:29.989Z,18.90
2023-03-17T14:53:17.539Z,18.80
2023-03-17T14:56:04.790Z,18.70
2023-03-17T14:58:52.782Z,18.70
2023-03-17T15:01:46.929Z,18.60
2023-03-17T15:04:35.885Z,18.50
2023-03-17T15:07:32.420Z,18.60
2023-03-17T15:10:24.354Z,18.50
2023-03-17T15:13:13.344Z,18.60
2023-03-17T15:16:03.999Z,18.50
2023-03-17T15:18:54.441Z,18.60
2023-03-17T15:21:43.223Z,18.50
2023-03-17T15:24:39.448Z,18.50
2023-03-17T15:27:27.081Z,18.30
2023-03-17T15:30:15.628Z,18.30
2023-03-17T15:33:03.841Z,18.30
2023-03-17T15:35:51.479Z,18.30
2023-03-17T15:38:40.197Z,18.30
2023-03-17T15:41:27.223Z,18.40
2023-03-17T15:44:14.679Z,18.40
2023-03-17T15:47:02.576Z,18.30
2023-03-17T15:49:51.010Z,18.20
2023-03-17T15:52:38.162Z,18.20
2023-03-17T15:55:31.299Z,18.20
2023-03-17T15:58:18.774Z,18.10
2023-03-17T16:01:06.503Z,18.10
2023-03-17T16:03:54.195Z,18.00
2023-03-17T16:06:41.714Z,18.00
2023-03-17T16:09:29.006Z,18.00
2023-03-17T16:12:16.767Z,18.00
2023-03-17T16:15:13.185Z,17.90
2023-03-17T16:17:56.281Z,17.90
2023-03-17T16:20:46.271Z,17.90
2023-03-17T16:23:37.097Z,17.80
2023-03-17T16:26:24.251Z,17.80
2023-03-17T16:29:18.228Z,17.70
2023-03-17T16:32:05.871Z,17.70
2023-03-17T16:34:53.298Z,17.70
2023-03-17T16:37:40.792Z,17.60
2023-03-17T16:40:37.740Z,17.40
2023-03-17T16:43:30.529Z,17.40
2023-03-17T16:46:18.409Z,17.10
2023-03-17T16:49:06.526Z,17.00
2023-03-17T16:51:53.568Z,17.00
2023-03-17T16:54:41.062Z,16.90
2023-03-17T16:57:28.969Z,16.90
2023-03-17T17:00:22.135Z,16.80
2023-03-17T17:03:09.690Z,16.70
2023-03-17T17:05:57.149Z,16.60
2023-03-17T17:08:46.440Z,16.60
2023-03-17T17:11:33.736Z,16.50
2023-03-17T17:14:21.024Z,16.40
2023-03-17T17:17:09.936Z,16.30
2023-03-17T17:19:57.336Z,16.20
2023-03-17T17:22:44.637Z,16.10
2023-03-17T17:25:32.731Z,16.10
2023-03-17T17:28:22.830Z,15.90
2023-03-17T17:31:10.940Z,15.90
2023-03-17T17:33:58.238Z,15.80
2023-03-17T17:36:45.821Z,15.80
2023-03-17T17:39:33.121Z,15.70
2023-03-17T17:42:21.402Z,15.50
2023-03-17T17:45:09.734Z,15.20
2023-03-17T17:47:57.033Z,14.80
2023-03-17T17:50:44.793Z,14.60
2023-03-17T17:53:32.319Z,14.50
2023-03-17T17:56:20.281Z,14.40
2023-03-17T17:59:08.019Z,14.40
2023-03-17T18:01:55.744Z,14.40
2023-03-17T18:04:42.905Z,14.50
2023-03-17T18:07:30.628Z,14.50
2023-03-17T18:10:22.104Z,14.40
2023-03-17T18:13:09.462Z,14.30
2023-03-17T18:15:57.026Z,14.30
2023-03-17T18:18:45.946Z,14.30
2023-03-17T18:21:34.067Z,14.10
2023-03-17T18:24:21.311Z,13.80
2023-03-17T18:27:09.416Z,13.60
2023-03-17T18:29:57.735Z,13.60
2023-03-17T18:32:45.277Z,13.50
2023-03-17T18:35:32.384Z,13.50
2023-03-17T18:38:19.775Z,13.40
2023-03-17T18:41:10.418Z,13.30
2023-03-17T18:43:57.691Z,13.10
2023-03-17T18:46:44.739Z,13.10
2023-03-17T18:49:31.878Z,13.00
2023-03-17T18:52:18.925Z,12.80
2023-03-17T18:55:07.278Z,12.70
2023-03-17T18:57:54.879Z,12.60
2023-03-17T19:00:42.036Z,12.60
2023-03-17T19:03:32.354Z,12.30
2023-03-17T19:06:22.405Z,12.00
2023-03-17T19:09:10.675Z,11.90
2023-03-17T19:11:57.866Z,11.80
2023-03-17T19:14:44.846Z,11.80
2023-03-17T19:17:32.326Z,11.90
2023-03-17T19:20:20.857Z,12.20
2023-03-17T19:23:08.330Z,12.20
2023-03-17T19:25:55.466Z,12.20
2023-03-17T19:28:42.511Z,12.00
2023-03-17T19:31:29.972Z,12.00
2023-03-17T19:34:17.254Z,11.80
2023-03-17T19:37:04.861Z,11.90
2023-03-17T19:39:52.008Z,11.90
2023-03-17T19:42:39.491Z,11.80
2023-03-17T19:45:27.060Z,11.70
2023-03-17T19:48:14.045Z,11.70
2023-03-17T19:51:02.094Z,11.80
2023-03-17T19:53:49.103Z,11.90
2023-03-17T19:56:36.587Z,11.90
2023-03-17T19:59:24.165Z,12.00
2023-03-17T20:02:14.376Z,11.80
2023-03-17T20:05:01.490Z,11.80
2023-03-17T20:07:48.714Z,11.70
2023-03-17T20:10:36.001Z,11.60
2023-03-17T20:13:23.510Z,11.60
2023-03-17T20:16:12.231Z,11.60
2023-03-17T20:18:59.485Z,11.50
2023-03-17T20:21:46.790Z,11.40
2023-03-17T20:24:34.795Z,11.40
2023-03-17T20:27:22.427Z,11.60
2023-03-17T20:30:12.059Z,11.70
2023-03-17T20:32:59.911Z,11.70
2023-03-17T20:35:47.925Z,11.60
2023-03-17T20:38:39.251Z,11.80
2023-03-17T20:41:26.179Z,11.80
2023-03-17T20:44:13.556Z,11.90
2023-03-17T20:47:00.799Z,12.00
2023-03-17T20:49:48.570Z,11.90
2023-03-17T20:52:37.141Z,11.90
2023-03-17T20:55:25.123Z,11.80
2023-03-17T20:58:13.462Z,11.80
2023-03-17T21:01:01.681Z,11.80
2023-03-17T21:03:50.088Z,11.80
2023-03-17T21:06:38.420Z,11.60
2023-03-17T21:09:25.943Z,11.40
2023-03-17T21:12:18.270Z,11.40
2023-03-17T21:15:07.615Z,11.30
2023-03-17T21:17:54.963Z,11.40
2023-03-17T21:20:42.222Z,11.50
2023-03-17T21:23:29.604Z,11.50
2023-03-17T21:26:18.331Z,11.40
2023-03-17T21:29:05.799Z,11.20
2023-03-17T21:31:53.213Z,11.00
2023-03-17T21:34:40.437Z,10.90
2023-03-17T21:37:27.833Z,10.80
2023-03-17T21:40:15.829Z,10.80
2023-03-17T21:43:03.654Z,10.80
2023-03-17T21:45:51.108Z,10.70
2023-03-17T21:48:38.721Z,10.70
2023-03-17T21:51:27.222Z,10.80
2023-03-17T21:54:15.177Z,10.90
2023-03-17T21:57:02.779Z,11.00
2023-03-17T21:59:50.461Z,11.10
2023-03-17T22:02:38.077Z,11.20
2023-03-17T22:05:26.985Z,11.30
2023-03-17T22:08:15.292Z,11.40
2023-03-17T22:11:07.882Z,11.40
2023-03-17T22:13:55.707Z,11.50
2023-03-17T22:16:43.284Z,11.50
2023-03-17T22:19:30.390Z,11.50
2023-03-17T22:22:17.896Z,11.50
2023-03-17T22:25:06.179Z,11.60
2023-03-17T22:27:53.570Z,11.60
2023-03-17T22:30:41.112Z,11.60
2023-03-17T22:33:28.711Z,11.70
2023-03-17T22:36:17.869Z,11.60
2023-03-17T22:39:08.332Z,11.40
2023-03-17T22:41:56.285Z,11.40
2023-03-17T22:44:43.666Z,11.40
2023-03-17T22:47:30.820Z,11.40
2023-03-17T22:50:18.835Z,11.40
2023-03-17T22:53:06.743Z,11.30
2023-03-17T22:55:54.945Z,11.30
2023-03-17T22:58:42.604Z,11.30
2023-03-17T23:01:29.650Z,11.20
2023-03-17T23:04:18.365Z,11.00
2023-03-17T23:07:05.649Z,10.90
2023-03-17T23:09:52.877Z,11.00
2023-03-17T23:12:40.413Z,10.90
2023-03-17T23:15:28.044Z,10.90
2023-03-17T23:18:15.620Z,10.90
2023-03-17T23:21:04.074Z,10.90
2023-03-17T23:23:51.295Z,10.80
2023-03-17T23:26:38.396Z,10.80
2023-03-17T23:29:25.763Z,10.90
2023-03-17T23:32:13.813Z,10.90
2023-03-17T23:35:01.012Z,10.90
2023-03-17T23:37:49.447Z,11.00
2023-03-17T23:40:37.172Z,11.00
2023-03-17T23:43:26.064Z,11.00
2023-03-17T23:46:14.515Z,11.00
2023-03-17T23:49:01.862Z,11.10
2023-03-17T23:51:49.248Z,11.20
2023-03-17T23:54:37.198Z,11.20
2023-03-17T23:57:25.777Z,11.30
